Terminal Aerodrome Forecast
Issued by NWS King Salmon, AK

Home | Current Version | Previous Version | Text Only | Print | Product List | Glossary On
Versions: 1 2 3 4 5 6 7 8 9 10 11 12 13 14 15 16 17 18 19 20 21 22 23 24 25 26 27 28 29 30 31 32 33 34 35 36 37 38 39 40 41 42
000
FTAK31 PANC 251006 AAA
TAFAKN
TAF AMD
PAKN 251006Z 2510/2606 VRB04KT 5SM -SHRA BR SCT030 OVC050
      TEMPO 2510/2514 BKN030
     FM251600 18009KT P6SM -SHRA BKN025 OVC050
     FM252100 20006KT P6SM SCT025 BKN040=

USA.gov is the U.S. government's official web portal to all federal, state and local government web resources and services.